Time;durP1;ratioP1;P1;durP2;ratioP2;P2;SDS_P1;SDS_P2;PMS_P1;PMS_P2;Temp;Humidity;BMP_temperature;BMP_pressure;BME280_temperature;BME280_humidity;BME280_pressure;Samples;Min_cycle;Max_cycle;Signal;HPM_P1;HPM_P2
2023/09/28 00:01:18;;;;;;;14.02;11.52;;;18.40;99.90;;;;;;5030198;28;20041;-66
2023/09/28 00:03:45;;;;;;;13.90;11.00;;;18.30;99.90;;;;;;5010976;28;20087;-66
2023/09/28 00:06:11;;;;;;;16.45;11.85;;;18.30;99.90;;;;;;5022126;28;20038;-66
2023/09/28 00:08:37;;;;;;;13.13;11.32;;;18.20;99.90;;;;;;5024340;28;20030;-66
2023/09/28 00:11:04;;;;;;;14.88;11.68;;;18.20;99.90;;;;;;5032552;28;20091;-66
2023/09/28 00:13:29;;;;;;;13.23;11.43;;;18.10;99.90;;;;;;5028197;28;20274;-66
2023/09/28 00:15:55;;;;;;;14.63;11.80;;;18.10;99.90;;;;;;5024333;28;20434;-67
2023/09/28 00:18:21;;;;;;;15.68;12.13;;;18.00;99.90;;;;;;5031537;28;20084;-67
2023/09/28 00:20:47;;;;;;;15.80;11.80;;;18.00;99.90;;;;;;5023787;28;20033;-66
2023/09/28 00:23:13;;;;;;;15.35;12.18;;;18.00;99.90;;;;;;5022119;28;20030;-67
2023/09/28 00:25:38;;;;;;;16.33;11.55;;;17.90;99.90;;;;;;5025555;28;20131;-67
2023/09/28 00:28:05;;;;;;;14.50;11.55;;;17.90;99.90;;;;;;5020846;28;20040;-67
2023/09/28 00:30:31;;;;;;;16.88;11.48;;;18.00;99.90;;;;;;5030160;28;20582;-67
2023/09/28 00:32:57;;;;;;;16.42;11.60;;;17.90;99.90;;;;;;5023209;28;20176;-67
2023/09/28 00:35:24;;;;;;;13.93;11.57;;;18.00;99.90;;;;;;5032317;28;20061;-66
2023/09/28 00:37:50;;;;;;;14.07;11.55;;;17.90;99.90;;;;;;5026924;28;20128;-66
2023/09/28 00:40:36;;;;;;;14.98;11.00;;;18.00;99.90;;;;;;5026862;28;20037;-67
2023/09/28 00:43:04;;;;;;;14.27;11.07;;;18.00;99.90;;;;;;5028517;28;20037;-66
2023/09/28 00:45:29;;;;;;;15.60;11.80;;;18.00;99.90;;;;;;5009869;28;20045;-66
2023/09/28 00:47:59;;;;;;;12.85;10.45;;;18.00;99.90;;;;;;5027977;28;20500;-66
2023/09/28 00:50:26;;;;;;;16.85;11.02;;;18.10;99.90;;;;;;5023198;28;20045;-67
2023/09/28 00:52:57;;;;;;;14.38;11.00;;;18.10;99.90;;;;;;5028271;28;20041;-67
2023/09/28 00:55:23;;;;;;;;;;;18.10;99.90;;;;;;5018623;28;20375;-67
2023/09/28 00:57:50;;;;;;;19.77;11.00;;;18.10;99.90;;;;;;5022989;28;20318;-66
2023/09/28 01:00:21;;;;;;;15.25;10.65;;;18.10;99.90;;;;;;5031940;28;20041;-66
2023/09/28 01:02:51;;;;;;;13.18;10.73;;;18.10;99.90;;;;;;5016842;28;20447;-66
2023/09/28 01:05:22;;;;;;;13.90;10.90;;;18.10;99.90;;;;;;5021060;28;20052;-67
2023/09/28 01:07:48;;;;;;;15.32;11.38;;;18.10;99.90;;;;;;5026329;28;20077;-66
2023/09/28 01:10:15;;;;;;;13.73;10.93;;;18.00;99.90;;;;;;5031583;28;20143;-66
2023/09/28 01:12:41;;;;;;;15.75;11.18;;;18.10;99.90;;;;;;5026350;28;20080;-67
2023/09/28 01:15:11;;;;;;;14.38;10.90;;;18.10;99.90;;;;;;5020419;28;20553;-66
2023/09/28 01:17:38;;;;;;;13.68;10.52;;;18.00;99.90;;;;;;5031406;28;20129;-67
2023/09/28 01:20:10;;;;;;;13.02;10.02;;;18.00;99.90;;;;;;5021895;28;20539;-66
2023/09/28 01:22:35;;;;;;;14.57;10.57;;;18.00;99.90;;;;;;5022882;28;20492;-66
2023/09/28 01:25:03;;;;;;;14.18;10.20;;;18.10;99.90;;;;;;5013772;28;20049;-66
2023/09/28 01:27:29;;;;;;;12.95;9.98;;;18.10;99.90;;;;;;5026192;28;20034;-66
2023/09/28 01:29:54;;;;;;;17.02;10.10;;;18.10;99.90;;;;;;5031053;28;20060;-67
2023/09/28 01:32:20;;;;;;;13.23;10.38;;;18.10;99.90;;;;;;5023079;28;20048;-67
2023/09/28 01:34:45;;;;;;;14.07;10.15;;;18.10;99.90;;;;;;5026555;28;20046;-66
2023/09/28 01:37:11;;;;;;;13.27;10.35;;;18.10;99.90;;;;;;5019762;28;20072;-66
2023/09/28 01:39:38;;;;;;;15.75;10.13;;;18.10;99.90;;;;;;5008038;28;20405;-66
2023/09/28 01:42:03;;;;;;;12.77;10.57;;;18.10;99.90;;;;;;4993151;28;20395;-66
2023/09/28 01:44:29;;;;;;;12.80;10.10;;;18.00;99.90;;;;;;5013580;28;20503;-66
2023/09/28 01:46:54;;;;;;;14.90;10.07;;;17.90;99.90;;;;;;5023314;28;20037;-66
2023/09/28 01:49:20;;;;;;;13.30;10.20;;;17.90;99.90;;;;;;5034226;28;20443;-65
2023/09/28 01:51:46;;;;;;;14.45;10.13;;;18.10;99.90;;;;;;5011182;28;20558;-66
2023/09/28 01:54:11;;;;;;;13.15;10.32;;;18.10;99.90;;;;;;5020940;28;20508;-66
2023/09/28 01:56:37;;;;;;;15.45;10.57;;;18.10;99.90;;;;;;5026312;28;20040;-67
2023/09/28 01:59:02;;;;;;;15.13;10.27;;;18.20;99.90;;;;;;5035356;28;20041;-66
2023/09/28 02:01:29;;;;;;;13.50;11.25;;;18.20;99.90;;;;;;5024803;28;20029;-67
2023/09/28 02:03:54;;;;;;;13.52;10.88;;;18.10;99.90;;;;;;5026965;28;20407;-67
2023/09/28 02:06:20;;;;;;;15.48;11.32;;;18.10;99.90;;;;;;5025983;28;20045;-66
2023/09/28 02:08:45;;;;;;;13.00;10.82;;;18.00;99.90;;;;;;5024471;28;20121;-67
2023/09/28 02:11:11;;;;;;;14.27;11.05;;;17.90;99.90;;;;;;5029644;28;20138;-66
2023/09/28 02:13:37;;;;;;;16.67;11.02;;;17.90;99.90;;;;;;5028036;28;20029;-66
2023/09/28 02:16:03;;;;;;;16.13;10.70;;;17.90;99.90;;;;;;5032397;28;20048;-66
2023/09/28 02:18:28;;;;;;;17.13;11.32;;;17.80;99.90;;;;;;4997477;28;20072;-66
2023/09/28 02:20:54;;;;;;;14.07;10.93;;;17.70;99.90;;;;;;5022843;28;20096;-67
2023/09/28 02:23:21;;;;;;;13.45;11.05;;;17.70;99.90;;;;;;5033354;28;20099;-66
2023/09/28 02:25:47;;;;;;;14.30;11.02;;;17.70;99.90;;;;;;5022647;28;20044;-66
2023/09/28 02:28:13;;;;;;;15.88;11.38;;;17.60;99.90;;;;;;5026776;28;20037;-66
2023/09/28 02:30:38;;;;;;;14.23;11.25;;;17.50;99.90;;;;;;5028116;28;20037;-67
2023/09/28 02:33:06;;;;;;;15.63;12.15;;;17.40;99.90;;;;;;5034485;28;20061;-66
2023/09/28 02:35:32;;;;;;;17.25;12.32;;;17.20;99.90;;;;;;5023041;28;20059;-67
2023/09/28 02:37:57;;;;;;;17.55;11.90;;;17.10;99.90;;;;;;5024147;28;20046;-66
2023/09/28 02:40:23;;;;;;;17.02;11.73;;;17.00;99.90;;;;;;5004966;28;20045;-66
2023/09/28 02:42:49;;;;;;;17.10;11.75;;;17.00;99.90;;;;;;5018666;28;20108;-66
2023/09/28 02:45:15;;;;;;;17.13;12.05;;;17.10;99.90;;;;;;5025187;28;20117;-66
2023/09/28 02:47:46;;;;;;;15.90;11.90;;;17.10;99.90;;;;;;5002876;28;20034;-66
2023/09/28 02:50:13;;;;;;;17.08;11.75;;;17.10;99.90;;;;;;4995316;28;20042;-66
2023/09/28 02:52:40;;;;;;;16.30;11.45;;;17.10;99.90;;;;;;5028032;28;20038;-65
2023/09/28 02:55:07;;;;;;;15.10;10.88;;;17.10;99.90;;;;;;5024920;28;20086;-65
2023/09/28 02:57:36;;;;;;;16.45;10.93;;;17.10;99.90;;;;;;5012645;28;20046;-66
2023/09/28 03:00:12;;;;;;;18.02;10.43;;;17.10;99.90;;;;;;5019816;28;20065;-66
2023/09/28 03:02:37;;;;;;;15.85;10.75;;;17.10;99.90;;;;;;5025452;28;20079;-67
2023/09/28 03:05:04;;;;;;;13.77;10.77;;;17.10;99.90;;;;;;5033840;28;20515;-67
2023/09/28 03:07:29;;;;;;;13.23;10.18;;;17.00;99.90;;;;;;5008562;28;20381;-65
2023/09/28 03:09:55;;;;;;;15.50;10.60;;;17.00;99.90;;;;;;5027603;28;20044;-66
2023/09/28 03:12:20;;;;;;;14.38;10.15;;;17.00;99.90;;;;;;5024980;28;20042;-66
2023/09/28 03:14:46;;;;;;;12.93;9.60;;;17.00;99.90;;;;;;5009724;28;20049;-67
2023/09/28 03:17:11;;;;;;;17.10;10.02;;;17.00;99.90;;;;;;5031930;28;20034;-66
2023/09/28 03:19:37;;;;;;;13.65;9.40;;;16.90;99.90;;;;;;5010763;28;20050;-66
2023/09/28 03:22:02;;;;;;;15.50;10.02;;;16.90;99.90;;;;;;5014030;28;20048;-67
2023/09/28 03:24:28;;;;;;;14.13;9.50;;;16.90;99.90;;;;;;5012373;28;20037;-67
2023/09/28 03:26:53;;;;;;;11.60;9.15;;;16.90;99.90;;;;;;5027947;28;20041;-67
2023/09/28 03:29:19;;;;;;;11.55;8.98;;;16.90;99.90;;;;;;5024753;28;20120;-66
2023/09/28 03:31:44;;;;;;;12.60;9.48;;;16.90;99.90;;;;;;5028700;28;20116;-66
2023/09/28 03:34:10;;;;;;;12.02;9.70;;;16.90;99.90;;;;;;5005281;28;20052;-65
2023/09/28 03:36:36;;;;;;;12.38;9.80;;;16.90;99.90;;;;;;5027560;28;20041;-66
2023/09/28 03:39:01;;;;;;;12.95;9.07;;;16.80;99.90;;;;;;5013338;28;20125;-66
2023/09/28 03:41:27;;;;;;;15.70;9.35;;;16.70;99.90;;;;;;5019793;28;20053;-66
2023/09/28 03:43:53;;;;;;;14.27;8.73;;;16.60;99.90;;;;;;5021295;28;20045;-67
2023/09/28 03:46:19;;;;;;;14.23;9.45;;;16.60;99.90;;;;;;4996453;28;20042;-67
2023/09/28 03:48:45;;;;;;;12.38;9.93;;;16.40;99.90;;;;;;4997744;28;20129;-66
2023/09/28 03:51:11;;;;;;;13.68;9.35;;;16.30;99.90;;;;;;5030374;28;20045;-66
2023/09/28 03:53:40;;;;;;;13.82;9.85;;;16.30;99.90;;;;;;5026401;28;20045;-67
2023/09/28 03:56:06;;;;;;;15.07;10.00;;;16.20;99.90;;;;;;5014743;28;20484;-66
2023/09/28 03:58:32;;;;;;;13.35;10.02;;;16.10;99.90;;;;;;5026734;28;20079;-67
2023/09/28 04:00:58;;;;;;;11.85;9.27;;;16.10;99.90;;;;;;5023708;28;20048;-66
2023/09/28 04:03:24;;;;;;;13.90;10.13;;;16.10;99.90;;;;;;5024009;28;20037;-67
2023/09/28 04:05:49;;;;;;;13.52;9.65;;;16.10;99.90;;;;;;5022264;28;20095;-66
2023/09/28 04:08:15;;;;;;;13.65;9.98;;;16.10;99.90;;;;;;5023499;28;20045;-66
2023/09/28 04:10:41;;;;;;;15.10;10.00;;;16.10;99.90;;;;;;5024239;28;20033;-67
2023/09/28 04:13:07;;;;;;;13.25;9.80;;;16.20;99.90;;;;;;5032441;28;20442;-67
2023/09/28 04:15:33;;;;;;;13.48;9.93;;;16.20;99.90;;;;;;5024678;28;20034;-67
2023/09/28 04:17:58;;;;;;;13.82;9.85;;;16.20;99.90;;;;;;5020197;28;20092;-66
2023/09/28 04:20:24;;;;;;;11.60;9.45;;;16.20;99.90;;;;;;5023450;28;20069;-67
2023/09/28 04:22:50;;;;;;;12.52;9.98;;;16.10;99.90;;;;;;5016979;28;20507;-67
2023/09/28 04:25:18;;;;;;;15.40;10.80;;;16.10;99.90;;;;;;5021991;28;20040;-66
2023/09/28 04:27:44;;;;;;;16.17;10.20;;;16.00;99.90;;;;;;5026207;28;20149;-67
2023/09/28 04:30:10;;;;;;;14.18;10.15;;;16.00;99.90;;;;;;5025881;28;20040;-66
2023/09/28 04:32:35;;;;;;;12.88;10.02;;;16.00;99.90;;;;;;5018361;28;20041;-67
2023/09/28 04:35:05;;;;;;;19.08;10.52;;;16.10;99.90;;;;;;5023617;28;20037;-66
2023/09/28 04:37:31;;;;;;;14.95;10.55;;;16.10;99.90;;;;;;5025990;28;20057;-66
2023/09/28 04:39:57;;;;;;;14.05;10.38;;;16.10;99.90;;;;;;5018414;28;20033;-66
2023/09/28 04:42:23;;;;;;;14.18;10.13;;;16.10;99.90;;;;;;5022910;28;20037;-67
2023/09/28 04:44:49;;;;;;;16.63;10.32;;;16.10;99.90;;;;;;5031945;28;20514;-67
2023/09/28 04:47:15;;;;;;;16.73;10.50;;;16.10;99.90;;;;;;5027062;28;20492;-67
2023/09/28 04:49:41;;;;;;;15.35;9.98;;;16.10;99.90;;;;;;5025537;28;20044;-67
2023/09/28 04:52:07;;;;;;;14.57;10.75;;;16.10;99.90;;;;;;5028963;28;20447;-66
2023/09/28 04:54:33;;;;;;;14.63;10.05;;;16.00;99.90;;;;;;5011818;28;20535;-66
2023/09/28 04:56:58;;;;;;;15.38;11.07;;;15.90;99.90;;;;;;5011840;28;20607;-66
2023/09/28 04:59:24;;;;;;;14.40;10.85;;;15.80;99.90;;;;;;5022735;28;20121;-66
2023/09/28 05:01:49;;;;;;;15.80;11.23;;;15.80;99.90;;;;;;5031835;28;20551;-67
2023/09/28 05:04:16;;;;;;;14.32;11.38;;;15.70;99.90;;;;;;5020042;28;20512;-67
2023/09/28 05:06:42;;;;;;;17.13;11.52;;;15.70;99.90;;;;;;5022213;28;20053;-67
2023/09/28 05:09:08;;;;;;;16.38;11.27;;;15.60;99.90;;;;;;4996157;28;20045;-67
2023/09/28 05:11:34;;;;;;;16.73;11.27;;;15.70;99.90;;;;;;5010574;28;20044;-66
2023/09/28 05:14:00;;;;;;;15.18;10.80;;;15.70;99.90;;;;;;5017403;28;20091;-66
2023/09/28 05:16:26;;;;;;;15.82;11.35;;;15.80;99.90;;;;;;5022254;28;20152;-66
2023/09/28 05:18:51;;;;;;;15.07;11.43;;;15.70;99.90;;;;;;5028462;28;20052;-67
2023/09/28 05:21:17;;;;;;;15.88;11.38;;;15.80;99.90;;;;;;5023239;28;20044;-66
2023/09/28 05:23:43;;;;;;;16.55;11.23;;;15.80;99.90;;;;;;5020066;28;20496;-67
2023/09/28 05:26:08;;;;;;;15.52;11.65;;;15.70;99.90;;;;;;5019543;28;20049;-66
2023/09/28 05:28:34;;;;;;;17.27;11.75;;;15.70;99.90;;;;;;5023840;28;20049;-66
2023/09/28 05:30:59;;;;;;;17.10;10.35;;;15.70;99.90;;;;;;5026087;28;20052;-66
2023/09/28 05:33:25;;;;;;;19.10;11.45;;;15.70;99.90;;;;;;5001859;28;20041;-67
2023/09/28 05:35:50;;;;;;;16.95;11.27;;;15.70;99.90;;;;;;5027828;28;20072;-66
2023/09/28 05:38:16;;;;;;;14.45;10.48;;;15.60;99.90;;;;;;5015971;28;20068;-66
2023/09/28 05:40:41;;;;;;;15.77;11.32;;;15.60;99.90;;;;;;5020269;28;20444;-66
2023/09/28 05:43:07;;;;;;;16.35;10.73;;;15.60;99.90;;;;;;5024648;28;20033;-66
2023/09/28 05:45:32;;;;;;;17.65;11.32;;;15.50;99.90;;;;;;5003030;28;20045;-66
2023/09/28 05:47:58;;;;;;;15.93;11.40;;;15.50;99.90;;;;;;5020010;28;20040;-66
2023/09/28 05:50:24;;;;;;;16.52;11.60;;;15.50;99.90;;;;;;5019296;28;20188;-66
2023/09/28 05:52:52;;;;;;;19.08;11.85;;;15.50;99.90;;;;;;5024141;28;20067;-67
2023/09/28 05:55:19;;;;;;;16.23;12.25;;;15.50;99.90;;;;;;5018206;28;20042;-66
2023/09/28 05:57:45;;;;;;;16.67;11.30;;;15.50;99.90;;;;;;5021880;28;20120;-67
2023/09/28 06:00:12;;;;;;;16.20;11.13;;;15.60;99.90;;;;;;4999988;28;20129;-67
2023/09/28 06:02:37;;;;;;;17.95;11.93;;;15.60;99.90;;;;;;5007310;28;20048;-67
2023/09/28 06:05:03;;;;;;;16.92;10.88;;;15.80;99.90;;;;;;5017626;28;20033;-66
2023/09/28 06:07:28;;;;;;;17.00;11.15;;;15.80;99.90;;;;;;5019657;28;20507;-66
2023/09/28 06:09:54;;;;;;;16.50;10.07;;;15.80;99.90;;;;;;5029981;28;20513;-66
2023/09/28 06:12:20;;;;;;;14.35;9.90;;;15.90;99.90;;;;;;5017407;28;20048;-67
2023/09/28 06:14:45;;;;;;;14.60;9.75;;;15.90;99.90;;;;;;5025319;28;20067;-66
2023/09/28 06:17:11;;;;;;;16.75;8.60;;;15.90;99.90;;;;;;5021256;28;20479;-67
2023/09/28 06:19:37;;;;;;;18.02;8.70;;;16.00;99.90;;;;;;5018150;28;20037;-66
2023/09/28 06:22:05;;;;;;;14.55;7.60;;;16.10;99.90;;;;;;5018517;28;20101;-66
2023/09/28 06:24:31;;;;;;;15.55;7.93;;;16.20;99.90;;;;;;5005863;28;20069;-67
2023/09/28 06:26:56;;;;;;;12.75;6.88;;;16.20;99.90;;;;;;5021894;28;20080;-66
2023/09/28 06:29:22;;;;;;;14.48;7.80;;;16.30;99.90;;;;;;5017210;28;20030;-67
2023/09/28 06:31:47;;;;;;;12.98;6.85;;;16.30;99.90;;;;;;5008001;28;20496;-66
2023/09/28 06:34:13;;;;;;;17.02;7.30;;;16.30;99.90;;;;;;5032596;28;20487;-66
2023/09/28 06:36:38;;;;;;;14.80;6.90;;;16.40;99.90;;;;;;5029205;28;20026;-67
2023/09/28 06:39:04;;;;;;;17.85;6.82;;;16.40;99.90;;;;;;5013401;28;20429;-67
2023/09/28 06:41:30;;;;;;;15.65;6.97;;;16.60;99.90;;;;;;5026544;28;20038;-66
2023/09/28 06:43:56;;;;;;;22.90;6.97;;;16.60;99.90;;;;;;5033715;28;20037;-67
2023/09/28 06:46:22;;;;;;;17.60;6.60;;;16.70;99.90;;;;;;5033508;28;20041;-67
2023/09/28 06:48:49;;;;;;;16.92;6.68;;;16.80;99.90;;;;;;5028685;28;20042;-66
2023/09/28 06:51:15;;;;;;;15.55;6.65;;;16.80;99.90;;;;;;5025195;28;20053;-66
2023/09/28 06:53:41;;;;;;;14.02;6.93;;;16.80;99.90;;;;;;5019620;28;20496;-66
2023/09/28 06:56:07;;;;;;;17.13;6.28;;;16.90;99.90;;;;;;5012102;28;20049;-67
2023/09/28 06:58:32;;;;;;;15.95;6.32;;;16.90;99.90;;;;;;5014404;28;20052;-67
2023/09/28 07:00:58;;;;;;;16.63;6.30;;;16.90;99.90;;;;;;5019898;28;20037;-67
2023/09/28 07:03:24;;;;;;;18.17;5.95;;;16.90;99.90;;;;;;5024451;28;20033;-67
2023/09/28 07:05:49;;;;;;;16.42;5.75;;;16.90;99.90;;;;;;5033791;28;20048;-65
2023/09/28 07:08:15;;;;;;;15.45;5.50;;;17.00;99.90;;;;;;5028147;28;20046;-66
2023/09/28 07:10:41;;;;;;;22.17;6.45;;;17.00;99.90;;;;;;5008139;28;20049;-67
2023/09/28 07:13:07;;;;;;;20.50;6.38;;;17.00;99.90;;;;;;5023883;28;20830;-67
2023/09/28 07:15:34;;;;;;;17.08;5.72;;;17.10;99.90;;;;;;5028430;28;20037;-67
2023/09/28 07:18:03;;;;;;;21.33;6.22;;;17.10;99.90;;;;;;5029782;28;20072;-67
2023/09/28 07:20:29;;;;;;;19.38;5.80;;;17.10;99.90;;;;;;5009925;28;20073;-66
2023/09/28 07:22:55;;;;;;;18.45;5.70;;;17.20;99.90;;;;;;5013661;28;20049;-67
2023/09/28 07:25:22;;;;;;;23.70;5.80;;;17.20;99.90;;;;;;5019884;28;20415;-66
2023/09/28 07:27:49;;;;;;;18.42;6.00;;;17.30;99.90;;;;;;5024568;28;20108;-67
2023/09/28 07:30:15;;;;;;;21.00;5.82;;;17.30;99.90;;;;;;5023923;28;20543;-67
2023/09/28 07:32:41;;;;;;;15.90;5.50;;;17.40;99.90;;;;;;5015473;28;20049;-66
2023/09/28 07:35:11;;;;;;;16.33;5.70;;;17.50;99.90;;;;;;5021261;28;20038;-67
2023/09/28 07:37:38;;;;;;;22.58;6.30;;;17.60;99.90;;;;;;5024075;28;20120;-66
2023/09/28 07:40:07;;;;;;;17.30;6.10;;;17.60;99.90;;;;;;5029593;28;20433;-67
2023/09/28 07:42:32;;;;;;;15.75;6.20;;;17.70;99.90;;;;;;5024077;28;20108;-66
2023/09/28 07:44:58;;;;;;;18.95;6.07;;;17.80;99.90;;;;;;5032815;28;20586;-67
2023/09/28 07:47:24;;;;;;;18.33;6.30;;;17.80;99.90;;;;;;5004061;28;20551;-67
2023/09/28 07:49:50;;;;;;;18.65;5.82;;;17.90;99.90;;;;;;5032047;28;20043;-66
2023/09/28 07:52:16;;;;;;;15.63;5.55;;;17.90;99.90;;;;;;5032852;28;20068;-65
2023/09/28 07:54:43;;;;;;;15.02;6.00;;;18.00;99.90;;;;;;5025283;28;20042;-67
2023/09/28 07:57:09;;;;;;;16.08;5.70;;;18.00;99.90;;;;;;5025432;28;20060;-66
2023/09/28 07:59:34;;;;;;;19.77;6.10;;;18.10;99.90;;;;;;5026367;28;20103;-67
2023/09/28 08:02:01;;;;;;;18.80;6.32;;;18.20;99.90;;;;;;5032030;28;20104;-67
2023/09/28 08:04:27;;;;;;;19.98;5.90;;;18.20;99.90;;;;;;5013032;28;20117;-68
2023/09/28 08:06:54;;;;;;;18.38;5.30;;;18.30;99.90;;;;;;5010975;28;20144;-67
2023/09/28 08:09:19;;;;;;;14.98;5.55;;;18.30;99.90;;;;;;5020704;28;20096;-66
2023/09/28 08:11:48;;;;;;;26.17;6.00;;;18.30;99.90;;;;;;5006810;28;20042;-64
2023/09/28 08:14:15;;;;;;;17.33;5.20;;;18.40;99.90;;;;;;5020481;28;20468;-68
2023/09/28 08:16:48;;;;;;;25.25;5.53;;;18.50;99.90;;;;;;5011679;28;20033;-66
2023/09/28 08:19:14;;;;;;;19.58;5.25;;;18.50;99.90;;;;;;5019748;28;20045;-67
2023/09/28 08:21:40;;;;;;;19.98;5.50;;;18.60;99.90;;;;;;5024327;28;20036;-70
2023/09/28 08:24:07;;;;;;;24.25;5.47;;;18.70;99.90;;;;;;5003851;28;20037;-70
2023/09/28 08:26:34;;;;;;;17.60;5.00;;;18.70;99.90;;;;;;5006964;28;20465;-69
2023/09/28 08:29:00;;;;;;;21.38;6.20;;;18.80;99.90;;;;;;5005903;28;20080;-63
2023/09/28 08:31:25;;;;;;;21.00;5.05;;;18.80;99.90;;;;;;5009587;28;20042;-67
2023/09/28 08:33:52;;;;;;;21.58;4.97;;;18.80;99.90;;;;;;5029695;28;20537;-66
2023/09/28 08:36:17;;;;;;;22.23;5.00;;;18.80;99.90;;;;;;5022376;28;20037;-68
2023/09/28 08:38:44;;;;;;;20.80;5.57;;;18.80;99.90;;;;;;5032331;28;20091;-68
2023/09/28 08:41:10;;;;;;;23.08;5.63;;;18.80;99.90;;;;;;5025453;28;20089;-67
2023/09/28 08:43:54;;;;;;;19.50;4.55;;;18.70;99.90;;;;;;5027703;28;20075;-66
2023/09/28 08:46:22;;;;;;;21.88;5.20;;;18.70;99.90;;;;;;5009756;28;20496;-68
2023/09/28 08:48:50;;;;;;;21.48;5.07;;;18.80;99.90;;;;;;5021966;28;20108;-68
2023/09/28 08:51:16;;;;;;;21.10;5.25;;;18.80;99.90;;;;;;5029630;28;20041;-67
2023/09/28 08:53:43;;;;;;;19.02;5.68;;;18.90;99.90;;;;;;4999456;28;20126;-67
2023/09/28 08:56:10;;;;;;;22.13;4.80;;;19.00;99.90;;;;;;5022060;28;20124;-67
2023/09/28 08:58:40;;;;;;;16.75;4.75;;;19.10;99.90;;;;;;5023232;28;20041;-67
2023/09/28 09:01:06;;;;;;;20.60;5.13;;;19.20;99.90;;;;;;5022975;28;20493;-67
2023/09/28 09:03:35;;;;;;;19.17;4.55;;;19.30;99.90;;;;;;5021601;28;20053;-67
2023/09/28 09:06:04;;;;;;;21.45;4.63;;;19.30;99.90;;;;;;5017164;28;20095;-67
2023/09/28 09:08:37;;;;;;;22.45;4.78;;;19.50;99.90;;;;;;5020048;28;20034;-67
2023/09/28 09:11:03;;;;;;;23.85;5.32;;;19.50;99.90;;;;;;5012693;28;20049;-67
2023/09/28 09:13:29;;;;;;;21.35;4.90;;;19.50;99.90;;;;;;5021734;28;20061;-66
2023/09/28 09:15:55;;;;;;;21.25;4.78;;;19.50;99.90;;;;;;5023890;28;20030;-65
2023/09/28 09:18:24;;;;;;;19.50;4.50;;;19.50;99.90;;;;;;5019684;28;20141;-68
2023/09/28 09:20:56;;;;;;;23.27;4.70;;;19.50;99.90;;;;;;5031358;28;20044;-68
2023/09/28 09:23:22;;;;;;;21.55;4.85;;;19.40;99.90;;;;;;5014007;28;20037;-68
2023/09/28 09:25:50;;;;;;;25.52;5.03;;;19.40;99.90;;;;;;5021324;28;20033;-67
2023/09/28 09:28:34;;;;;;;21.48;4.35;;;19.40;99.90;;;;;;5012694;28;20050;-68
2023/09/28 09:31:01;;;;;;;26.23;5.28;;;19.30;99.90;;;;;;5014657;28;20034;-67
2023/09/28 09:33:27;;;;;;;23.40;4.88;;;19.40;99.90;;;;;;5023872;28;20042;-67
2023/09/28 09:35:52;;;;;;;23.33;4.50;;;19.40;99.90;;;;;;5022211;28;20037;-67
2023/09/28 09:38:30;;;;;;;23.92;4.75;;;19.50;99.90;;;;;;5026977;28;20184;-67
2023/09/28 09:41:06;;;;;;;22.85;4.35;;;19.60;99.90;;;;;;5017914;28;20042;-68
2023/09/28 09:43:34;;;;;;;21.17;5.07;;;19.60;99.90;;;;;;5020259;28;20044;-67
2023/09/28 09:46:06;;;;;;;19.25;4.40;;;19.60;99.90;;;;;;5030274;28;20072;-68
2023/09/28 09:48:39;;;;;;;23.67;4.40;;;19.40;99.90;;;;;;5012697;28;20057;-66
2023/09/28 09:51:09;;;;;;;25.00;5.35;;;19.50;99.90;;;;;;5018761;28;20519;-67
2023/09/28 09:53:38;;;;;;;23.83;4.05;;;19.60;99.90;;;;;;5029933;28;20041;-66
2023/09/28 09:56:04;;;;;;;17.63;3.70;;;19.80;99.90;;;;;;5017668;28;20029;-68
2023/09/28 09:58:37;;;;;;;20.88;3.85;;;20.00;99.90;;;;;;5017831;28;20041;-67
2023/09/28 10:01:10;;;;;;;20.13;4.35;;;20.20;99.90;;;;;;5005020;28;20038;-67
2023/09/28 10:03:38;;;;;;;22.20;4.22;;;20.20;99.90;;;;;;5016946;28;20038;-67
2023/09/28 10:06:04;;;;;;;20.17;4.35;;;20.20;99.90;;;;;;5009508;28;20048;-68
2023/09/28 10:08:32;;;;;;;20.27;3.75;;;20.10;99.90;;;;;;5035282;28;20041;-68
2023/09/28 10:11:00;;;;;;;22.25;4.65;;;20.00;99.90;;;;;;5030516;28;20041;-66
2023/09/28 10:13:27;;;;;;;22.85;4.38;;;20.00;99.90;;;;;;5023822;28;20044;-68
2023/09/28 10:15:54;;;;;;;17.77;3.85;;;19.90;99.90;;;;;;5024871;28;20048;-68
2023/09/28 10:18:20;;;;;;;27.27;4.95;;;19.90;99.90;;;;;;5011495;28;20060;-66
2023/09/28 10:20:46;;;;;;;19.60;3.78;;;19.90;99.90;;;;;;5025427;28;20037;-67
2023/09/28 10:23:16;;;;;;;22.88;4.13;;;20.00;99.90;;;;;;5034876;28;20042;-67
2023/09/28 10:25:57;;;;;;;17.42;3.78;;;20.20;99.90;;;;;;5028279;28;20057;-67
2023/09/28 10:28:23;;;;;;;19.27;4.18;;;20.30;99.90;;;;;;5018782;28;20033;-68
2023/09/28 10:31:04;;;;;;;21.13;4.15;;;20.30;99.90;;;;;;5007977;28;20048;-68
2023/09/28 10:33:33;;;;;;;;;;;20.30;99.90;;;;;;5027865;28;20041;-66
2023/09/28 10:36:12;;;;;;;18.83;3.90;;;20.30;99.90;;;;;;5034175;28;20346;-68
2023/09/28 10:38:41;;;;;;;24.02;4.40;;;20.10;99.90;;;;;;5025616;28;20167;-68
2023/09/28 10:41:06;;;;;;;16.48;4.18;;;20.00;99.90;;;;;;5031319;28;20500;-68
2023/09/28 10:43:32;;;;;;;19.75;4.18;;;20.00;99.90;;;;;;4997807;28;20069;-68
2023/09/28 10:46:03;;;;;;;25.92;4.18;;;19.90;99.90;;;;;;5021028;28;20072;-68
2023/09/28 10:48:32;;;;;;;25.55;4.70;;;19.90;99.90;;;;;;5025130;28;20034;-68
2023/09/28 10:50:58;;;;;;;21.50;4.38;;;19.90;99.90;;;;;;5030437;28;20044;-67
2023/09/28 10:53:23;;;;;;;25.10;4.32;;;19.90;99.90;;;;;;5026307;28;20025;-67
2023/09/28 10:55:49;;;;;;;18.83;3.83;;;19.90;99.90;;;;;;5025434;28;20518;-66
2023/09/28 10:58:16;;;;;;;18.58;3.70;;;19.90;99.90;;;;;;5025909;28;20506;-67
2023/09/28 11:00:42;;;;;;;22.65;4.10;;;20.00;99.90;;;;;;5034084;28;20051;-68
2023/09/28 11:03:08;;;;;;;19.67;4.18;;;20.10;99.90;;;;;;5023541;28;20059;-68
2023/09/28 11:05:34;;;;;;;22.30;4.38;;;20.10;99.90;;;;;;5022310;28;20547;-68
2023/09/28 11:08:04;;;;;;;19.08;4.10;;;20.10;99.90;;;;;;5017417;28;20049;-68
2023/09/28 11:10:29;;;;;;;24.75;4.97;;;20.00;99.90;;;;;;5015585;28;20088;-68
2023/09/28 11:12:55;;;;;;;19.00;4.47;;;19.90;99.90;;;;;;5024712;28;20042;-68
2023/09/28 11:15:22;;;;;;;22.35;4.38;;;19.90;99.90;;;;;;5032090;28;20136;-68
2023/09/28 11:17:50;;;;;;;16.23;3.72;;;19.90;99.90;;;;;;5006277;28;20038;-68
2023/09/28 11:20:15;;;;;;;19.30;3.72;;;20.10;99.90;;;;;;5004769;28;20049;-68
2023/09/28 11:22:41;;;;;;;20.42;4.32;;;20.20;99.90;;;;;;5024422;28;20040;-67
2023/09/28 11:25:07;;;;;;;17.30;4.00;;;20.10;99.90;;;;;;5023284;28;20033;-67
2023/09/28 11:27:33;;;;;;;18.88;4.28;;;20.20;99.90;;;;;;5020560;28;20515;-67
2023/09/28 11:30:02;;;;;;;25.77;4.68;;;20.30;99.90;;;;;;5010824;28;20096;-67
2023/09/28 11:32:27;;;;;;;20.35;3.95;;;20.40;99.90;;;;;;5020698;28;20045;-67
2023/09/28 11:34:53;;;;;;;19.67;4.18;;;20.50;99.90;;;;;;5021926;28;20128;-67
2023/09/28 11:37:23;;;;;;;16.02;4.10;;;20.60;99.90;;;;;;5021527;28;20053;-68
2023/09/28 11:39:49;;;;;;;17.73;4.20;;;20.70;99.90;;;;;;5025009;28;20046;-67
2023/09/28 11:42:14;;;;;;;24.13;4.75;;;20.80;99.90;;;;;;5033441;28;20071;-67
2023/09/28 11:44:42;;;;;;;15.57;4.10;;;20.80;99.90;;;;;;5025855;28;20045;-68
2023/09/28 11:47:08;;;;;;;14.50;3.97;;;20.80;99.90;;;;;;5024808;28;20041;-67
2023/09/28 11:49:37;;;;;;;17.00;4.47;;;21.00;99.90;;;;;;5025819;28;20043;-67
2023/09/28 11:52:03;;;;;;;22.38;4.70;;;20.90;99.90;;;;;;5028707;28;20081;-68
2023/09/28 11:54:29;;;;;;;19.08;4.13;;;21.00;99.90;;;;;;5026268;28;20167;-66
2023/09/28 11:56:57;;;;;;;18.27;4.20;;;21.10;99.90;;;;;;5024336;28;20120;-66
2023/09/28 11:59:23;;;;;;;23.17;5.10;;;21.30;99.90;;;;;;5032822;28;20041;-66
2023/09/28 12:01:51;;;;;;;20.83;4.95;;;21.50;99.90;;;;;;5026326;28;20036;-65
2023/09/28 12:04:17;;;;;;;19.50;4.80;;;21.30;99.90;;;;;;5016017;28;20084;-66
2023/09/28 12:06:45;;;;;;;22.15;4.57;;;21.20;99.90;;;;;;5023827;28;20041;-66
2023/09/28 12:09:11;;;;;;;17.45;4.60;;;21.30;99.90;;;;;;5028346;28;20042;-67
2023/09/28 12:11:37;;;;;;;19.27;4.63;;;21.30;99.90;;;;;;5017400;28;20064;-67
2023/09/28 12:14:03;;;;;;;23.98;4.30;;;21.30;99.90;;;;;;5021350;28;20045;-67
2023/09/28 12:16:29;;;;;;;22.48;4.50;;;21.10;99.90;;;;;;5017784;28;20128;-66
2023/09/28 12:18:54;;;;;;;17.20;4.32;;;21.20;99.90;;;;;;5019258;28;20034;-66
2023/09/28 12:21:20;;;;;;;19.30;4.53;;;21.10;99.90;;;;;;5025917;28;20369;-66
2023/09/28 12:23:47;;;;;;;16.13;3.70;;;21.00;99.90;;;;;;5032710;28;20034;-67
2023/09/28 12:26:13;;;;;;;24.60;7.13;;;21.20;99.90;;;;;;5004243;28;20041;-68
2023/09/28 12:28:39;;;;;;;14.45;4.32;;;21.40;99.90;;;;;;5023798;28;20056;-68
2023/09/28 12:31:05;;;;;;;18.88;4.05;;;21.60;99.90;;;;;;5026057;28;20469;-68